sensor_id;sensor_type;location;lat;lon;timestamp;pressure;altitude;pressure_sealevel;temperature;humidity
75617;BME280;64200;55.426;37.758;2023-01-29T00:03:12;99498.16;;;-0.11;69.85
75617;BME280;64200;55.426;37.758;2023-01-29T00:08:13;99486.09;;;-0.46;70.87
75617;BME280;64200;55.426;37.758;2023-01-29T00:13:13;99482.59;;;-0.54;70.85
75617;BME280;64200;55.426;37.758;2023-01-29T00:18:14;99470.09;;;-0.66;71.72
75617;BME280;64200;55.426;37.758;2023-01-29T00:23:15;99476.38;;;-0.62;71.76
75617;BME280;64200;55.426;37.758;2023-01-29T00:28:15;99475.22;;;-0.68;70.71
75617;BME280;64200;55.426;37.758;2023-01-29T00:33:16;99467.38;;;-0.80;72.20
75617;BME280;64200;55.426;37.758;2023-01-29T00:38:16;99476.41;;;-0.80;71.81
75617;BME280;64200;55.426;37.758;2023-01-29T00:43:17;99454.88;;;-0.78;72.13
75617;BME280;64200;55.426;37.758;2023-01-29T00:48:36;99462.66;;;-0.73;71.92
75617;BME280;64200;55.426;37.758;2023-01-29T00:53:37;99460.66;;;-0.50;72.46
75617;BME280;64200;55.426;37.758;2023-01-29T00:58:37;99470.00;;;-0.19;71.56
75617;BME280;64200;55.426;37.758;2023-01-29T01:03:38;99460.16;;;-0.09;71.19
75617;BME280;64200;55.426;37.758;2023-01-29T01:08:41;99458.22;;;-0.16;70.53
75617;BME280;64200;55.426;37.758;2023-01-29T01:14:00;99447.25;;;-0.16;70.33
75617;BME280;64200;55.426;37.758;2023-01-29T01:19:02;99456.69;;;-0.21;70.10
75617;BME280;64200;55.426;37.758;2023-01-29T01:24:03;99459.03;;;-0.19;70.79
75617;BME280;64200;55.426;37.758;2023-01-29T01:29:05;99453.53;;;-0.12;69.88
75617;BME280;64200;55.426;37.758;2023-01-29T01:34:05;99451.19;;;-0.17;70.20
75617;BME280;64200;55.426;37.758;2023-01-29T01:39:06;99453.59;;;-0.41;70.29
75617;BME280;64200;55.426;37.758;2023-01-29T01:44:06;99446.97;;;-0.47;71.00
75617;BME280;64200;55.426;37.758;2023-01-29T01:49:13;99433.66;;;-0.45;70.37
75617;BME280;64200;55.426;37.758;2023-01-29T01:54:23;99430.13;;;-0.42;70.00
75617;BME280;64200;55.426;37.758;2023-01-29T01:59:26;99421.56;;;-0.58;69.64
75617;BME280;64200;55.426;37.758;2023-01-29T02:04:26;99421.56;;;-0.58;69.75
75617;BME280;64200;55.426;37.758;2023-01-29T02:09:51;99420.38;;;-0.50;69.73
75617;BME280;64200;55.426;37.758;2023-01-29T02:14:53;99402.72;;;-0.42;69.70
75617;BME280;64200;55.426;37.758;2023-01-29T02:20:13;99413.31;;;-0.47;68.94
75617;BME280;64200;55.426;37.758;2023-01-29T02:30:43;99387.81;;;-0.33;69.66
75617;BME280;64200;55.426;37.758;2023-01-29T02:35:58;99395.97;;;-0.19;69.44
75617;BME280;64200;55.426;37.758;2023-01-29T02:41:20;99387.75;;;-0.23;69.07
75617;BME280;64200;55.426;37.758;2023-01-29T02:56:41;99370.13;;;-0.22;68.78
75617;BME280;64200;55.426;37.758;2023-01-29T03:01:52;99370.50;;;-0.16;69.37
75617;BME280;64200;55.426;37.758;2023-01-29T03:07:05;99354.78;;;-0.08;69.23
75617;BME280;64200;55.426;37.758;2023-01-29T03:12:22;99349.63;;;0.01;68.79
75617;BME280;64200;55.426;37.758;2023-01-29T03:17:39;99348.09;;;0.00;69.07
75617;BME280;64200;55.426;37.758;2023-01-29T03:22:43;99331.25;;;-0.02;69.06
75617;BME280;64200;55.426;37.758;2023-01-29T03:27:50;99336.75;;;-0.06;69.29
75617;BME280;64200;55.426;37.758;2023-01-29T03:33:14;99332.41;;;-0.03;68.76
75617;BME280;64200;55.426;37.758;2023-01-29T03:38:17;99321.94;;;-0.12;68.43
75617;BME280;64200;55.426;37.758;2023-01-29T03:48:35;99311.81;;;-0.26;67.30
75617;BME280;64200;55.426;37.758;2023-01-29T04:04:18;99294.97;;;-0.21;66.67
75617;BME280;64200;55.426;37.758;2023-01-29T04:09:30;99281.66;;;-0.26;66.94
75617;BME280;64200;55.426;37.758;2023-01-29T04:14:32;99286.81;;;-0.39;67.47
75617;BME280;64200;55.426;37.758;2023-01-29T04:19:32;99277.81;;;-0.36;67.02
75617;BME280;64200;55.426;37.758;2023-01-29T04:24:34;99268.84;;;-0.40;66.76
75617;BME280;64200;55.426;37.758;2023-01-29T04:51:34;99254.66;;;-0.24;67.04
75617;BME280;64200;55.426;37.758;2023-01-29T04:56:53;99260.50;;;-0.25;66.51
75617;BME280;64200;55.426;37.758;2023-01-29T05:01:54;99246.84;;;-0.29;66.65
75617;BME280;64200;55.426;37.758;2023-01-29T05:06:55;99246.53;;;-0.42;67.05
75617;BME280;64200;55.426;37.758;2023-01-29T05:11:56;99250.78;;;-0.37;66.87
75617;BME280;64200;55.426;37.758;2023-01-29T05:16:57;99228.19;;;-0.52;67.41
75617;BME280;64200;55.426;37.758;2023-01-29T05:22:04;99240.38;;;-0.60;66.97
75617;BME280;64200;55.426;37.758;2023-01-29T05:27:05;99236.47;;;-0.59;67.77
75617;BME280;64200;55.426;37.758;2023-01-29T05:32:27;99237.16;;;-0.48;67.26
75617;BME280;64200;55.426;37.758;2023-01-29T05:37:27;99242.19;;;-0.36;67.27
75617;BME280;64200;55.426;37.758;2023-01-29T05:42:28;99234.34;;;-0.33;66.82
75617;BME280;64200;55.426;37.758;2023-01-29T05:47:28;99243.91;;;-0.60;67.39
75617;BME280;64200;55.426;37.758;2023-01-29T05:52:29;99229.91;;;-0.76;66.94
75617;BME280;64200;55.426;37.758;2023-01-29T05:57:29;99255.19;;;-1.57;69.61
75617;BME280;64200;55.426;37.758;2023-01-29T06:02:30;99242.31;;;-1.71;70.18
75617;BME280;64200;55.426;37.758;2023-01-29T06:07:31;99233.75;;;-1.80;70.75
75617;BME280;64200;55.426;37.758;2023-01-29T06:12:31;99223.59;;;-1.87;71.05
75617;BME280;64200;55.426;37.758;2023-01-29T06:17:32;99231.03;;;-2.13;70.92
75617;BME280;64200;55.426;37.758;2023-01-29T06:22:32;99229.06;;;-2.12;71.20
75617;BME280;64200;55.426;37.758;2023-01-29T06:27:33;99235.31;;;-2.15;71.61
75617;BME280;64200;55.426;37.758;2023-01-29T06:32:34;99242.72;;;-2.23;71.67
75617;BME280;64200;55.426;37.758;2023-01-29T06:37:34;99241.94;;;-2.20;71.77
75617;BME280;64200;55.426;37.758;2023-01-29T06:42:37;99233.75;;;-1.98;71.54
75617;BME280;64200;55.426;37.758;2023-01-29T06:47:37;99240.75;;;-1.97;71.74
75617;BME280;64200;55.426;37.758;2023-01-29T06:52:38;99233.75;;;-1.95;71.33
75617;BME280;64200;55.426;37.758;2023-01-29T06:57:40;99224.00;;;-1.92;71.72
75617;BME280;64200;55.426;37.758;2023-01-29T07:02:41;99215.38;;;-1.76;71.49
75617;BME280;64200;55.426;37.758;2023-01-29T07:07:41;99208.31;;;-1.66;70.40
75617;BME280;64200;55.426;37.758;2023-01-29T07:12:42;99218.06;;;-1.54;69.42
75617;BME280;64200;55.426;37.758;2023-01-29T07:17:42;99212.22;;;-1.60;70.98
75617;BME280;64200;55.426;37.758;2023-01-29T07:22:43;99212.25;;;-1.67;70.41
75617;BME280;64200;55.426;37.758;2023-01-29T07:27:44;99193.09;;;-1.64;70.60
75617;BME280;64200;55.426;37.758;2023-01-29T07:32:44;99199.25;;;-1.38;70.49
75617;BME280;64200;55.426;37.758;2023-01-29T07:37:48;99196.47;;;-1.24;69.43
75617;BME280;64200;55.426;37.758;2023-01-29T07:42:49;99166.44;;;-1.34;69.83
75617;BME280;64200;55.426;37.758;2023-01-29T07:47:54;99192.50;;;-1.04;69.45
75617;BME280;64200;55.426;37.758;2023-01-29T07:52:54;99179.53;;;-0.93;68.45
75617;BME280;64200;55.426;37.758;2023-01-29T07:58:00;99190.88;;;-0.95;69.66
75617;BME280;64200;55.426;37.758;2023-01-29T08:03:03;99194.88;;;-1.14;68.98
75617;BME280;64200;55.426;37.758;2023-01-29T08:08:04;99192.94;;;-1.20;69.47
75617;BME280;64200;55.426;37.758;2023-01-29T08:13:05;99181.22;;;-1.21;69.93
75617;BME280;64200;55.426;37.758;2023-01-29T08:18:06;99171.78;;;-1.13;69.70
75617;BME280;64200;55.426;37.758;2023-01-29T08:23:13;99160.91;;;-1.24;70.44
75617;BME280;64200;55.426;37.758;2023-01-29T08:28:14;99168.72;;;-1.18;69.59
75617;BME280;64200;55.426;37.758;2023-01-29T08:33:14;99173.72;;;-1.06;70.02
75617;BME280;64200;55.426;37.758;2023-01-29T08:38:15;99156.13;;;-1.09;69.48
75617;BME280;64200;55.426;37.758;2023-01-29T08:43:16;99143.66;;;-1.13;69.64
75617;BME280;64200;55.426;37.758;2023-01-29T08:48:17;99139.34;;;-1.14;70.26
75617;BME280;64200;55.426;37.758;2023-01-29T08:53:19;99138.72;;;-0.69;69.38
75617;BME280;64200;55.426;37.758;2023-01-29T08:58:23;99143.78;;;-0.68;68.31
75617;BME280;64200;55.426;37.758;2023-01-29T09:03:24;99136.09;;;-0.91;68.21
75617;BME280;64200;55.426;37.758;2023-01-29T09:08:24;99133.00;;;-0.93;67.95
75617;BME280;64200;55.426;37.758;2023-01-29T09:13:25;99122.91;;;-1.07;68.84
75617;BME280;64200;55.426;37.758;2023-01-29T09:18:26;99137.88;;;-0.63;67.94
75617;BME280;64200;55.426;37.758;2023-01-29T09:23:28;99120.56;;;-0.52;67.51
75617;BME280;64200;55.426;37.758;2023-01-29T09:28:29;99125.28;;;-0.57;68.51
75617;BME280;64200;55.426;37.758;2023-01-29T09:33:29;99124.53;;;-0.57;67.57
75617;BME280;64200;55.426;37.758;2023-01-29T09:38:30;99121.88;;;-0.72;66.88
75617;BME280;64200;55.426;37.758;2023-01-29T09:48:38;99120.16;;;-0.47;67.96
75617;BME280;64200;55.426;37.758;2023-01-29T09:53:44;99110.75;;;-0.05;66.45
75617;BME280;64200;55.426;37.758;2023-01-29T09:58:48;99103.09;;;-0.21;66.02
75617;BME280;64200;55.426;37.758;2023-01-29T10:14:48;99075.91;;;-0.08;65.51
75617;BME280;64200;55.426;37.758;2023-01-29T10:20:13;99072.94;;;-0.21;65.72
75617;BME280;64200;55.426;37.758;2023-01-29T10:25:20;99064.72;;;-0.21;65.78
75617;BME280;64200;55.426;37.758;2023-01-29T10:30:37;99059.78;;;0.02;65.98
75617;BME280;64200;55.426;37.758;2023-01-29T10:35:42;99050.88;;;0.25;66.04
75617;BME280;64200;55.426;37.758;2023-01-29T10:40:51;99006.97;;;0.28;64.38
75617;BME280;64200;55.426;37.758;2023-01-29T11:01:39;98979.97;;;0.23;63.78
75617;BME280;64200;55.426;37.758;2023-01-29T11:06:40;98965.13;;;0.21;63.48
75617;BME280;64200;55.426;37.758;2023-01-29T11:12:02;98955.94;;;0.85;62.57
75617;BME280;64200;55.426;37.758;2023-01-29T11:17:05;98951.63;;;0.61;61.76
75617;BME280;64200;55.426;37.758;2023-01-29T11:22:20;98942.41;;;-0.11;61.26
75617;BME280;64200;55.426;37.758;2023-01-29T11:27:23;98961.50;;;0.00;61.96
75617;BME280;64200;55.426;37.758;2023-01-29T11:32:32;98945.53;;;-0.09;62.28
75617;BME280;64200;55.426;37.758;2023-01-29T11:37:38;98945.03;;;-0.31;61.92
75617;BME280;64200;55.426;37.758;2023-01-29T11:42:39;98944.16;;;-0.59;62.15
75617;BME280;64200;55.426;37.758;2023-01-29T11:47:39;98944.47;;;-0.53;62.92
75617;BME280;64200;55.426;37.758;2023-01-29T11:52:42;98935.19;;;-0.63;62.72
75617;BME280;64200;55.426;37.758;2023-01-29T11:57:45;98942.16;;;-0.55;62.58
75617;BME280;64200;55.426;37.758;2023-01-29T12:07:57;98931.13;;;-0.85;63.58
75617;BME280;64200;55.426;37.758;2023-01-29T12:13:24;98942.50;;;-0.91;64.24
75617;BME280;64200;55.426;37.758;2023-01-29T12:18:33;98942.47;;;-0.87;63.98
75617;BME280;64200;55.426;37.758;2023-01-29T12:39:28;98904.56;;;-0.92;64.90
75617;BME280;64200;55.426;37.758;2023-01-29T12:49:55;98914.00;;;-0.93;65.14
75617;BME280;64200;55.426;37.758;2023-01-29T12:54:59;98902.69;;;-0.99;65.44
75617;BME280;64200;55.426;37.758;2023-01-29T13:00:09;98900.94;;;-0.78;65.83
75617;BME280;64200;55.426;37.758;2023-01-29T13:10:20;98891.47;;;-1.12;66.32
75617;BME280;64200;55.426;37.758;2023-01-29T13:15:34;98894.03;;;-0.94;65.82
75617;BME280;64200;55.426;37.758;2023-01-29T13:20:36;98895.38;;;-1.13;66.25
75617;BME280;64200;55.426;37.758;2023-01-29T13:25:38;98894.03;;;-1.35;66.88
75617;BME280;64200;55.426;37.758;2023-01-29T13:30:40;98899.38;;;-1.21;66.33
75617;BME280;64200;55.426;37.758;2023-01-29T13:35:42;98896.09;;;-1.05;66.68
75617;BME280;64200;55.426;37.758;2023-01-29T13:40:49;98894.88;;;-1.00;66.72
75617;BME280;64200;55.426;37.758;2023-01-29T13:45:51;98894.25;;;-1.19;66.58
75617;BME280;64200;55.426;37.758;2023-01-29T13:50:54;98893.09;;;-1.21;66.92
75617;BME280;64200;55.426;37.758;2023-01-29T14:06:49;98872.66;;;-1.10;67.05
75617;BME280;64200;55.426;37.758;2023-01-29T14:11:50;98868.88;;;-1.19;67.15
75617;BME280;64200;55.426;37.758;2023-01-29T14:17:01;98869.47;;;-1.01;66.98
75617;BME280;64200;55.426;37.758;2023-01-29T14:22:03;98865.38;;;-1.24;67.42
75617;BME280;64200;55.426;37.758;2023-01-29T14:27:04;98867.38;;;-1.28;68.42
75617;BME280;64200;55.426;37.758;2023-01-29T14:42:17;98858.91;;;-1.40;68.88
75617;BME280;64200;55.426;37.758;2023-01-29T14:52:43;98852.22;;;-1.39;69.14
75617;BME280;64200;55.426;37.758;2023-01-29T14:57:44;98841.41;;;-1.50;68.87
75617;BME280;64200;55.426;37.758;2023-01-29T15:02:45;98860.97;;;-1.55;68.87
75617;BME280;64200;55.426;37.758;2023-01-29T15:13:26;98846.41;;;-1.45;68.51
75617;BME280;64200;55.426;37.758;2023-01-29T15:23:36;98843.06;;;-1.64;69.13
75617;BME280;64200;55.426;37.758;2023-01-29T15:28:38;98839.22;;;-1.70;69.33
75617;BME280;64200;55.426;37.758;2023-01-29T15:33:41;98853.19;;;-1.61;69.46
75617;BME280;64200;55.426;37.758;2023-01-29T15:38:44;98842.38;;;-1.75;70.26
75617;BME280;64200;55.426;37.758;2023-01-29T15:43:46;98855.84;;;-1.50;69.80
75617;BME280;64200;55.426;37.758;2023-01-29T15:48:48;98857.84;;;-1.54;69.22
75617;BME280;64200;55.426;37.758;2023-01-29T15:58:53;98844.47;;;-1.45;69.50
75617;BME280;64200;55.426;37.758;2023-01-29T16:03:56;98848.22;;;-1.73;69.84
75617;BME280;64200;55.426;37.758;2023-01-29T16:09:00;98836.44;;;-1.63;69.70
75617;BME280;64200;55.426;37.758;2023-01-29T16:14:02;98826.69;;;-1.67;69.89
75617;BME280;64200;55.426;37.758;2023-01-29T16:19:25;98821.78;;;-1.90;70.33
75617;BME280;64200;55.426;37.758;2023-01-29T16:24:27;98805.28;;;-1.76;70.30
75617;BME280;64200;55.426;37.758;2023-01-29T16:29:32;98807.69;;;-1.85;69.75
75617;BME280;64200;55.426;37.758;2023-01-29T16:34:36;98800.69;;;-1.86;70.21
75617;BME280;64200;55.426;37.758;2023-01-29T16:39:43;98792.84;;;-1.84;69.88
75617;BME280;64200;55.426;37.758;2023-01-29T16:44:58;98799.44;;;-1.78;70.32
75617;BME280;64200;55.426;37.758;2023-01-29T16:55:21;98799.72;;;-1.69;70.22
75617;BME280;64200;55.426;37.758;2023-01-29T17:00:27;98788.13;;;-1.80;69.73
75617;BME280;64200;55.426;37.758;2023-01-29T17:05:30;98788.94;;;-1.87;69.92
75617;BME280;64200;55.426;37.758;2023-01-29T17:10:32;98794.00;;;-1.85;70.47
75617;BME280;64200;55.426;37.758;2023-01-29T17:15:44;98786.28;;;-1.94;70.90
75617;BME280;64200;55.426;37.758;2023-01-29T17:20:46;98789.28;;;-1.78;70.13
75617;BME280;64200;55.426;37.758;2023-01-29T17:25:47;98767.94;;;-1.93;70.42
75617;BME280;64200;55.426;37.758;2023-01-29T17:30:48;98762.81;;;-1.88;70.95
75617;BME280;64200;55.426;37.758;2023-01-29T17:35:49;98767.41;;;-1.78;69.63
75617;BME280;64200;55.426;37.758;2023-01-29T17:41:15;98755.28;;;-1.77;70.27
75617;BME280;64200;55.426;37.758;2023-01-29T17:46:18;98762.25;;;-1.68;69.92
75617;BME280;64200;55.426;37.758;2023-01-29T17:51:19;98746.41;;;-1.88;69.77
75617;BME280;64200;55.426;37.758;2023-01-29T17:56:24;98741.75;;;-1.91;70.36
75617;BME280;64200;55.426;37.758;2023-01-29T18:01:28;98759.13;;;-1.67;69.79
75617;BME280;64200;55.426;37.758;2023-01-29T18:06:29;98760.28;;;-1.68;69.91
75617;BME280;64200;55.426;37.758;2023-01-29T18:11:29;98754.53;;;-1.81;69.92
75617;BME280;64200;55.426;37.758;2023-01-29T18:16:30;98751.03;;;-1.78;69.43
75617;BME280;64200;55.426;37.758;2023-01-29T18:21:36;98756.81;;;-1.72;69.95
75617;BME280;64200;55.426;37.758;2023-01-29T18:26:36;98749.50;;;-1.86;70.82
75617;BME280;64200;55.426;37.758;2023-01-29T18:31:37;98742.72;;;-1.67;70.46
75617;BME280;64200;55.426;37.758;2023-01-29T18:36:37;98738.88;;;-1.77;70.36
75617;BME280;64200;55.426;37.758;2023-01-29T18:41:55;98738.59;;;-1.86;70.37
75617;BME280;64200;55.426;37.758;2023-01-29T18:46:56;98735.88;;;-1.89;70.26
75617;BME280;64200;55.426;37.758;2023-01-29T18:51:56;98735.88;;;-1.89;71.22
75617;BME280;64200;55.426;37.758;2023-01-29T18:56:57;98727.88;;;-1.66;69.92
75617;BME280;64200;55.426;37.758;2023-01-29T19:01:57;98718.88;;;-1.66;69.55
75617;BME280;64200;55.426;37.758;2023-01-29T19:06:58;98720.84;;;-1.67;70.42
75617;BME280;64200;55.426;37.758;2023-01-29T19:11:58;98728.16;;;-1.56;70.27
75617;BME280;64200;55.426;37.758;2023-01-29T19:16:59;98722.41;;;-1.66;69.71
75617;BME280;64200;55.426;37.758;2023-01-29T19:22:00;98719.44;;;-1.86;70.31
75617;BME280;64200;55.426;37.758;2023-01-29T19:27:01;98704.28;;;-1.90;70.77
75617;BME280;64200;55.426;37.758;2023-01-29T19:32:02;98710.72;;;-1.70;70.60
75617;BME280;64200;55.426;37.758;2023-01-29T19:37:02;98709.75;;;-1.94;70.84
75617;BME280;64200;55.426;37.758;2023-01-29T19:42:03;98705.59;;;-1.64;70.57
75617;BME280;64200;55.426;37.758;2023-01-29T19:47:03;98696.84;;;-1.52;70.59
75617;BME280;64200;55.426;37.758;2023-01-29T19:52:04;98702.06;;;-1.65;70.08
75617;BME280;64200;55.426;37.758;2023-01-29T19:57:06;98694.59;;;-1.61;70.02
75617;BME280;64200;55.426;37.758;2023-01-29T20:02:07;98703.56;;;-1.60;70.63
75617;BME280;64200;55.426;37.758;2023-01-29T20:07:08;98706.34;;;-1.29;70.67
75617;BME280;64200;55.426;37.758;2023-01-29T20:12:08;98704.19;;;-1.45;70.18
75617;BME280;64200;55.426;37.758;2023-01-29T20:17:09;98691.31;;;-1.45;70.02
75617;BME280;64200;55.426;37.758;2023-01-29T20:22:11;98692.72;;;-1.67;70.44
75617;BME280;64200;55.426;37.758;2023-01-29T20:27:11;98681.53;;;-1.84;71.03
75617;BME280;64200;55.426;37.758;2023-01-29T20:32:12;98669.13;;;-1.92;71.17
75617;BME280;64200;55.426;37.758;2023-01-29T20:37:13;98657.94;;;-1.67;70.96
75617;BME280;64200;55.426;37.758;2023-01-29T20:42:14;98649.00;;;-1.71;71.05
75617;BME280;64200;55.426;37.758;2023-01-29T20:47:15;98649.81;;;-1.39;70.60
75617;BME280;64200;55.426;37.758;2023-01-29T20:52:15;98645.91;;;-1.38;69.45
75617;BME280;64200;55.426;37.758;2023-01-29T20:57:16;98628.22;;;-1.65;70.57
75617;BME280;64200;55.426;37.758;2023-01-29T21:02:16;98631.16;;;-1.48;69.67
75617;BME280;64200;55.426;37.758;2023-01-29T21:07:17;98632.44;;;-1.56;70.21
75617;BME280;64200;55.426;37.758;2023-01-29T21:12:17;98631.13;;;-1.45;69.84
75617;BME280;64200;55.426;37.758;2023-01-29T21:17:18;98630.31;;;-1.42;69.84
75617;BME280;64200;55.426;37.758;2023-01-29T21:22:18;98620.13;;;-1.41;69.28
75617;BME280;64200;55.426;37.758;2023-01-29T21:27:19;98615.22;;;-1.53;70.16
75617;BME280;64200;55.426;37.758;2023-01-29T21:32:20;98616.03;;;-1.56;70.11
75617;BME280;64200;55.426;37.758;2023-01-29T21:37:20;98614.03;;;-1.52;70.10
75617;BME280;64200;55.426;37.758;2023-01-29T21:42:21;98599.72;;;-1.64;70.51
75617;BME280;64200;55.426;37.758;2023-01-29T21:47:40;98590.81;;;-1.71;70.68
75617;BME280;64200;55.426;37.758;2023-01-29T21:52:41;98597.72;;;-1.60;70.78
75617;BME280;64200;55.426;37.758;2023-01-29T21:57:41;98595.34;;;-1.57;70.70
75617;BME280;64200;55.426;37.758;2023-01-29T22:02:42;98588.53;;;-1.77;70.59
75617;BME280;64200;55.426;37.758;2023-01-29T22:07:43;98595.91;;;-1.73;70.41
75617;BME280;64200;55.426;37.758;2023-01-29T22:12:44;98588.66;;;-1.87;70.98
75617;BME280;64200;55.426;37.758;2023-01-29T22:17:44;98597.41;;;-1.69;70.66
75617;BME280;64200;55.426;37.758;2023-01-29T22:22:44;98601.59;;;-1.91;71.22
75617;BME280;64200;55.426;37.758;2023-01-29T22:27:45;98590.28;;;-1.93;71.66
75617;BME280;64200;55.426;37.758;2023-01-29T22:32:46;98579.38;;;-1.97;71.92
75617;BME280;64200;55.426;37.758;2023-01-29T22:37:46;98558.81;;;-2.05;71.87
75617;BME280;64200;55.426;37.758;2023-01-29T22:42:47;98565.31;;;-1.96;72.42
75617;BME280;64200;55.426;37.758;2023-01-29T22:47:47;98558.72;;;-1.98;71.99
75617;BME280;64200;55.426;37.758;2023-01-29T22:52:48;98555.91;;;-1.91;71.99
75617;BME280;64200;55.426;37.758;2023-01-29T22:57:52;98553.44;;;-2.16;72.70
75617;BME280;64200;55.426;37.758;2023-01-29T23:02:53;98537.34;;;-2.07;73.10
75617;BME280;64200;55.426;37.758;2023-01-29T23:07:53;98524.13;;;-2.12;73.34
75617;BME280;64200;55.426;37.758;2023-01-29T23:12:54;98530.47;;;-2.19;73.82
75617;BME280;64200;55.426;37.758;2023-01-29T23:17:54;98515.19;;;-2.16;73.79
75617;BME280;64200;55.426;37.758;2023-01-29T23:22:55;98511.81;;;-1.93;73.43
75617;BME280;64200;55.426;37.758;2023-01-29T23:27:55;98502.56;;;-2.03;73.32
75617;BME280;64200;55.426;37.758;2023-01-29T23:32:56;98511.06;;;-1.97;72.96
75617;BME280;64200;55.426;37.758;2023-01-29T23:37:56;98506.66;;;-1.87;72.45
75617;BME280;64200;55.426;37.758;2023-01-29T23:42:57;98492.41;;;-2.02;72.64
75617;BME280;64200;55.426;37.758;2023-01-29T23:47:57;98484.38;;;-1.86;72.75
75617;BME280;64200;55.426;37.758;2023-01-29T23:52:58;98480.56;;;-1.92;73.35
75617;BME280;64200;55.426;37.758;2023-01-29T23:57:58;98470.03;;;-1.93;73.28
